Portada
METAR-TAF:

METAR-TAF

Aeropuertos :

Aeropuerto Internacional de Gimhae

Busan, Corea del Sur

latitud: 35-11N, longitud: 128-56E, altitud: 4 m

Observación

El informe se hizo hace 33 minutos, a las 01:00 UTC
Viento 6 kt del noroeste
Temperatura 24°C
Humedad 61%
Presión 1009 hPa
Visibilidad: 9000 m

METAR: RKPK 010100Z 32006KT 9000 NSC 24/16 Q1009

Hora: 10:33 (01:33 UTC)

Pronóstico

El informe se hizo hace 2 horas y 33 minutos, a las 23:00 UTC
Pronóstico válido del 01 a las 00 UTC al 02 a las 06 UTC
Viento 6 kt del oeste-noroeste
Visibilidad 10 km o más
sin nubes por debajo de 1500 m y sin presencia de cumulonimbus.
Evolucionando progresivamente
del 01 a las 02 UTC al 01 a las 03 UTC
Viento 6 kt del sur
Evolucionando progresivamente
del 01 a las 08 UTC al 01 a las 09 UTC
Viento 6 kt del oeste-noroeste

TAF: RKPK 312300Z 0100/0206 30006KT CAVOK TX28/0106Z TN15/0121Z BECMG 0102/0103 18006KT BECMG 0108/0109 30006KT

Observaciones y pronósticos meteorológicos de más de 4000 aeropuertos (mensajes METAR y TAF).

Los puntos amarillos y rojos representan las estaciones disponibles.

Ponga el ratón en el punto deseado para ver el nombre de la estación.

Haga clic para ver las observaciones y los pronósticos meteorológicos.

Para cambiar el mapa : haga clic en los botones verdes con una cruz de color negro para hacer un zoom, en el botón verde con un guión para alejar o en las flechas verdes para mapas adyacentes.


METAR-TAF: